This is the latest recevied weather packets stored in our database for station/object BMCB-31. If no packets are shown the sender has not sent any weather packets the latest 10 day(s).
| Time | Temp. | Humidity | Pressure | Rain* | Wind** | Luminosity | Snow |
|---|---|---|---|---|---|---|---|
| 1777618257 | 13.33° C | 32% | 1026.4 hPa | 0 mm | - | 234 W/m² | - |
| 1777611656 | 10° C | 35% | 1026.7 hPa | 0 mm | - | 12 W/m² | - |
| 1777594255 | 11.11° C | 34% | 1026.9 hPa | 0 mm | - | 0 W/m² | - |
| 1777588858 | 11.11° C | 34% | 1027.4 hPa | 0 mm | - | 0 W/m² | - |
| 1777585861 | 12.22° C | 31% | 1027.1 hPa | 0 mm | - | 0 W/m² | - |
| 1777582862 | 11.67° C | 31% | 1026.9 hPa | 0 mm | - | 0 W/m² | - |
| 1777578059 | 13.33° C | 27% | 1026.4 hPa | 0 mm | - | 0 W/m² | - |
| 1777570257 | 16.11° C | 24% | 1026 hPa | 0 mm | - | 36 W/m² | - |
| 1777569061 | 16.11° C | 23% | 1025.9 hPa | 0 mm | - | 54 W/m² | - |
| 1777564857 | 17.22° C | 22% | 1025.6 hPa | 0 mm | - | 276 W/m² | - |
| 1777557057 | 16.67° C | 24% | 1026.3 hPa | 0 mm | - | 518 W/m² | - |
| 1777555259 | 16.67° C | 24% | 1026.5 hPa | 0 mm | - | 556 W/m² | - |
| 1777552856 | 16.67° C | 24% | 1026.7 hPa | 0 mm | - | 594 W/m² | - |
| 1777551058 | 16.11° C | 26% | 1026.8 hPa | 0 mm | - | 610 W/m² | - |
| 1777546854 | 15° C | 27% | 1027.3 hPa | 0 mm | - | 610 W/m² | - |
| 1777536655 | 11.67° C | 32% | 1027.6 hPa | 0 mm | - | 392 W/m² | - |
| 1777533658 | 10° C | 38% | 1027.8 hPa | 0 mm | - | 290 W/m² | - |
| 1777530055 | 8.33° C | 41% | 1027.8 hPa | 0 mm | - | 168 W/m² | - |
| 1777521054 | 6.67° C | 44% | 1027.8 hPa | 0 mm | - | 0 W/m² | - |
| 1777516255 | 7.22° C | 44% | 1028 hPa | 0 mm | - | 0 W/m² | - |
| 1777512056 | 7.78° C | 45% | 1028 hPa | 0 mm | - | 0 W/m² | - |
| 1777498862 | 10° C | 42% | 1027.3 hPa | 0 mm | - | 0 W/m² | - |
| 1777485657 | 15° C | 29% | 1025 hPa | 0 mm | - | 22 W/m² | - |
| 1777484449 | 15.56° C | 28% | 1024.9 hPa | 0 mm | - | 36 W/m² | - |
| 1777480858 | 16.67° C | 26% | 1024.6 hPa | 0 mm | - | 192 W/m² | - |
* Rain latest hour (hover to see other rain measurements)
** Current wind speed in m/s (hover to see current wind gust speed)